Time;durP1;ratioP1;P1;durP2;ratioP2;P2;SDS_P1;SDS_P2;PMS_P1;PMS_P2;Temp;Humidity;BMP_temperature;BMP_pressure;BME280_temperature;BME280_humidity;BME280_pressure;Samples;Min_cycle;Max_cycle;Signal;HPM_P1;HPM_P2
2022/04/06 00:00:21;;;;;;;9.20;6.13;;;;;;;8.35;96.84;97426.50;4201986;28;20051;-72
2022/04/06 00:02:21;;;;;;;10.38;6.75;;;;;;;8.26;97.13;97426.03;4193645;28;20753;-72
2022/04/06 00:04:23;;;;;;;8.05;5.63;;;;;;;8.24;97.45;97426.44;4198423;28;20044;-72
2022/04/06 00:06:23;;;;;;;8.68;6.38;;;;;;;8.23;96.73;97415.81;4196128;28;20094;-72
2022/04/06 00:08:23;;;;;;;9.68;6.32;;;;;;;8.20;97.22;97422.09;4201023;28;20040;-72
2022/04/06 00:10:24;;;;;;;11.07;7.15;;;;;;;8.23;96.79;97424.06;4196972;28;20261;-72
2022/04/06 00:12:25;;;;;;;9.07;6.32;;;;;;;8.24;96.35;97422.91;4197087;28;20059;-72
2022/04/06 00:14:25;;;;;;;11.57;6.93;;;;;;;8.24;96.08;97428.41;4197897;28;20094;-72
2022/04/06 00:16:26;;;;;;;9.27;6.65;;;;;;;8.26;95.47;97415.81;4190749;28;20033;-72
2022/04/06 00:18:26;;;;;;;9.15;5.82;;;;;;;8.29;95.59;97419.78;4200586;28;20093;-72
2022/04/06 00:20:26;;;;;;;8.23;5.97;;;;;;;8.27;96.73;97414.63;4196506;28;20036;-72
2022/04/06 00:22:27;;;;;;;8.95;6.40;;;;;;;8.22;97.50;97423.28;4195050;28;20080;-72
2022/04/06 00:24:27;;;;;;;9.48;6.22;;;;;;;8.31;96.43;97431.19;4196678;28;20090;-72
2022/04/06 00:26:28;;;;;;;9.95;6.55;;;;;;;8.30;96.46;97422.13;4197550;28;20468;-72
2022/04/06 00:28:28;;;;;;;9.45;6.30;;;;;;;8.32;95.83;97435.53;4198361;28;20492;-72
2022/04/06 00:30:28;;;;;;;10.68;6.35;;;;;;;8.29;96.15;97428.03;4192442;28;20495;-72
2022/04/06 00:32:29;;;;;;;10.15;6.30;;;;;;;8.25;97.36;97425.25;4195350;28;20105;-72
2022/04/06 00:36:48;;;;;;;9.70;6.80;;;;;;;8.20;97.53;97425.66;4198063;28;20383;-72
2022/04/06 00:38:48;;;;;;;9.77;5.90;;;;;;;8.23;96.95;97424.06;4195539;28;20072;-72
2022/04/06 00:40:48;;;;;;;9.30;6.35;;;;;;;8.18;97.60;97433.50;4195819;28;20045;-72
2022/04/06 00:42:50;;;;;;;9.00;6.07;;;;;;;8.18;96.54;97417.75;4191335;28;20315;-72
2022/04/06 00:44:51;;;;;;;8.90;5.70;;;;;;;8.16;97.51;97428.38;4199398;28;20040;-72
2022/04/06 00:46:51;;;;;;;8.43;5.70;;;;;;;8.11;98.59;97422.47;4195561;28;20055;-72
2022/04/06 00:48:51;;;;;;;10.68;7.20;;;;;;;8.07;97.64;97416.94;4197394;28;20371;-72
2022/04/06 00:50:52;;;;;;;9.18;5.82;;;;;;;8.06;97.93;97415.34;4199054;28;20167;-72
2022/04/06 00:52:57;;;;;;;8.55;6.30;;;;;;;8.07;97.66;97416.13;4190037;28;20468;-72
2022/04/06 00:54:58;;;;;;;10.60;7.25;;;;;;;8.10;96.60;97418.09;4195825;28;20575;-72
2022/04/06 00:56:59;;;;;;;8.98;6.00;;;;;;;8.10;96.24;97423.63;4194002;28;20127;-72
2022/04/06 00:58:59;;;;;;;9.63;6.63;;;;;;;8.03;96.79;97407.09;4200209;28;20509;-72
2022/04/06 01:01:00;;;;;;;10.52;6.28;;;;;;;7.97;97.66;97401.16;4199352;28;20036;-72
2022/04/06 01:03:00;;;;;;;9.90;6.38;;;;;;;7.99;96.74;97406.25;4195461;28;20071;-72
2022/04/06 01:05:01;;;;;;;8.65;5.90;;;;;;;7.96;97.47;97396.03;4195522;28;20727;-72
2022/04/06 01:07:01;;;;;;;8.13;5.63;;;;;;;8.06;95.89;97398.81;4194641;28;20033;-72
2022/04/06 01:09:02;;;;;;;7.93;5.03;;;;;;;8.02;96.44;97391.72;4193774;28;20036;-72
2022/04/06 01:11:02;;;;;;;8.02;5.55;;;;;;;8.01;95.79;97390.91;4191757;28;20051;-72
2022/04/06 01:13:03;;;;;;;7.88;5.22;;;;;;;7.95;95.88;97384.22;4194896;28;20047;-72
2022/04/06 01:15:04;;;;;;;7.65;5.22;;;;;;;7.89;95.99;97386.56;4194991;28;20067;-72
2022/04/06 01:17:07;;;;;;;8.63;5.47;;;;;;;7.97;95.68;97398.41;4197848;28;20070;-72
2022/04/06 01:19:08;;;;;;;8.63;5.45;;;;;;;7.94;95.59;97384.59;4193100;28;20138;-72
2022/04/06 01:21:11;;;;;;;9.00;5.93;;;;;;;7.98;94.57;97391.72;4195233;28;20510;-72
2022/04/06 01:23:12;;;;;;;9.65;6.07;;;;;;;7.94;94.36;97385.38;4196664;28;20043;-72
2022/04/06 01:25:12;;;;;;;10.23;6.50;;;;;;;8.01;94.00;97392.88;4191656;28;20426;-72
2022/04/06 01:27:14;;;;;;;10.18;6.32;;;;;;;8.02;94.10;97383.44;4190487;28;20040;-72
2022/04/06 01:29:14;;;;;;;10.00;6.32;;;;;;;7.97;94.43;97372.81;4195533;28;20427;-72
2022/04/06 01:31:15;;;;;;;8.95;5.80;;;;;;;8.01;93.94;97387.38;4193528;28;20074;-72
2022/04/06 01:33:16;;;;;;;8.60;5.88;;;;;;;7.92;94.59;97376.72;4192758;28;20072;-72
2022/04/06 01:35:16;;;;;;;9.02;5.85;;;;;;;7.84;95.59;97381.41;4197257;28;20745;-72
2022/04/06 01:37:17;;;;;;;9.43;6.55;;;;;;;7.88;95.29;97378.69;4196219;28;20040;-72
2022/04/06 01:39:18;;;;;;;9.85;6.35;;;;;;;7.86;95.56;97384.59;4192401;28;20052;-72
2022/04/06 01:41:18;;;;;;;8.77;5.53;;;;;;;7.85;95.41;97385.72;4197781;28;20433;-72
2022/04/06 01:43:19;;;;;;;7.80;5.97;;;;;;;7.79;95.92;97389.25;4195725;28;20507;-72
2022/04/06 01:45:19;;;;;;;10.05;7.13;;;;;;;7.87;95.51;97388.91;4192989;28;20048;-72
2022/04/06 01:47:20;;;;;;;9.15;6.05;;;;;;;7.91;95.45;97388.13;4191242;28;20044;-72
2022/04/06 01:53:59;;;;;;;10.70;6.28;;;;;;;7.84;95.82;97395.19;4191229;28;20063;-72
2022/04/06 01:55:59;;;;;;;8.80;6.00;;;;;;;7.91;95.36;97393.63;4198830;28;20163;-72
2022/04/06 01:57:59;;;;;;;9.35;6.93;;;;;;;7.91;95.29;97391.66;4194057;28;20044;-72
2022/04/06 02:00:01;;;;;;;10.05;6.05;;;;;;;7.92;95.20;97393.25;4196748;28;20091;-72
2022/04/06 02:02:03;;;;;;;9.63;5.90;;;;;;;7.92;95.37;97389.69;4198096;28;20048;-72
2022/04/06 02:04:11;;;;;;;10.98;6.60;;;;;;;7.93;95.19;97394.81;4194434;28;20467;-72
2022/04/06 02:06:12;;;;;;;8.80;5.97;;;;;;;7.97;95.10;97395.63;4196607;28;20034;-72
2022/04/06 02:08:12;;;;;;;10.57;5.88;;;;;;;7.97;94.57;97392.09;4195680;28;20118;-72
2022/04/06 02:10:14;;;;;;;10.30;6.18;;;;;;;7.97;94.96;97387.38;4193353;28;20093;-72
2022/04/06 02:12:14;;;;;;;9.30;6.15;;;;;;;7.98;94.35;97388.94;4196441;28;20271;-72
2022/04/06 02:14:16;;;;;;;9.60;6.22;;;;;;;7.95;94.03;97388.94;4194183;28;20377;-72
2022/04/06 02:16:16;;;;;;;9.45;5.90;;;;;;;7.96;94.40;97390.53;4193962;28;20029;-72
2022/04/06 02:18:16;;;;;;;8.02;5.40;;;;;;;7.91;94.73;97390.88;4201060;28;20046;-72
2022/04/06 02:20:17;;;;;;;9.13;6.40;;;;;;;7.87;95.20;97397.19;4195140;28;20024;-72
2022/04/06 02:22:19;;;;;;;9.57;5.85;;;;;;;7.84;95.48;97389.66;4195858;28;20028;-72
2022/04/06 02:24:19;;;;;;;7.73;5.20;;;;;;;7.87;95.46;97397.19;4192739;28;20073;-72
2022/04/06 02:26:19;;;;;;;7.63;5.07;;;;;;;7.86;94.90;97381.81;4195438;28;20024;-72
2022/04/06 02:28:20;;;;;;;7.60;5.22;;;;;;;7.94;94.30;97382.63;4193523;28;20071;-72
2022/04/06 02:30:21;;;;;;;9.38;5.63;;;;;;;8.01;93.89;97395.63;4195436;28;20113;-72
2022/04/06 02:32:21;;;;;;;9.23;5.18;;;;;;;8.01;93.54;97382.66;4193088;28;20040;-72
2022/04/06 02:34:22;;;;;;;7.68;4.90;;;;;;;8.06;93.61;97389.78;4198387;28;20087;-72
2022/04/06 02:36:22;;;;;;;7.45;5.13;;;;;;;8.04;93.80;97392.13;4195801;28;20432;-72
2022/04/06 02:38:23;;;;;;;7.90;5.15;;;;;;;8.11;93.58;97392.94;4192044;28;20045;-72
2022/04/06 02:40:23;;;;;;;7.35;4.93;;;;;;;8.05;93.49;97390.94;4195103;28;20037;-72
2022/04/06 02:42:23;;;;;;;6.85;4.72;;;;;;;8.03;94.12;97390.56;4194447;28;20648;-72
2022/04/06 02:44:24;;;;;;;7.93;5.05;;;;;;;8.09;93.16;97384.25;4196827;28;20048;-72
2022/04/06 02:46:24;;;;;;;7.38;5.18;;;;;;;8.03;93.94;97391.34;4195370;28;20059;-72
2022/04/06 02:48:24;;;;;;;8.57;5.20;;;;;;;7.98;93.87;97385.41;4193153;28;20049;-72
2022/04/06 02:50:25;;;;;;;6.53;4.85;;;;;;;7.95;94.68;97386.97;4194532;28;20116;-72
2022/04/06 02:52:25;;;;;;;9.55;5.03;;;;;;;7.93;94.95;97391.28;4197502;28;20121;-72
2022/04/06 02:54:25;;;;;;;6.82;4.90;;;;;;;7.94;95.13;97384.59;4195609;28;20387;-72
2022/04/06 02:56:27;;;;;;;6.30;4.25;;;;;;;7.89;95.90;97391.28;4195077;28;20484;-72
2022/04/06 02:58:28;;;;;;;8.13;4.93;;;;;;;7.89;95.72;97381.03;4197417;28;20036;-72
2022/04/06 03:00:32;;;;;;;7.18;4.75;;;;;;;7.85;96.45;97384.94;4194887;28;20545;-72
2022/04/06 03:02:32;;;;;;;8.15;5.20;;;;;;;7.83;96.61;97382.59;4193818;28;20043;-72
2022/04/06 03:04:33;;;;;;;7.78;5.13;;;;;;;7.81;96.66;97384.94;4193858;28;20029;-72
2022/04/06 03:06:33;;;;;;;9.05;5.22;;;;;;;7.81;97.42;97390.44;4193543;28;20049;-72
2022/04/06 03:08:33;;;;;;;7.72;4.82;;;;;;;7.84;97.10;97386.91;4199772;28;20080;-72
2022/04/06 03:10:34;;;;;;;7.80;5.05;;;;;;;7.83;97.89;97396.34;4190451;28;20044;-72
2022/04/06 03:12:34;;;;;;;7.45;5.18;;;;;;;7.80;97.42;97383.38;4190820;28;20135;-72
2022/04/06 03:14:35;;;;;;;7.82;5.30;;;;;;;7.84;97.43;97383.38;4196444;28;20449;-72
2022/04/06 03:16:35;;;;;;;7.25;5.07;;;;;;;7.82;97.29;97394.00;4195481;28;20101;-72
2022/04/06 03:18:35;;;;;;;7.78;5.85;;;;;;;7.77;98.26;97381.38;4196436;28;20374;-72
2022/04/06 03:20:36;;;;;;;9.52;5.93;;;;;;;7.78;98.93;97384.94;4193454;28;20465;-72
2022/04/06 03:22:36;;;;;;;12.68;6.38;;;;;;;7.76;99.89;97382.53;4193487;28;20044;-72
2022/04/06 03:24:36;;;;;;;10.63;7.47;;;;;;;7.79;99.85;97394.78;4193848;28;20479;-72
2022/04/06 03:26:37;;;;;;;9.65;6.63;;;;;;;7.76;100.00;97381.75;4192578;28;20503;-72
2022/04/06 03:28:38;;;;;;;10.40;6.65;;;;;;;7.75;100.00;97385.69;4194780;28;20044;-72
2022/04/06 03:30:38;;;;;;;9.63;4.93;;;;;;;7.72;100.00;97383.72;4193640;28;20124;-72
2022/04/06 03:32:40;;;;;;;11.25;7.43;;;;;;;7.71;100.00;97382.16;4201156;28;20131;-72
2022/04/06 03:34:40;;;;;;;9.10;5.88;;;;;;;7.73;99.46;97391.59;4196999;28;20361;-72
2022/04/06 03:36:40;;;;;;;8.63;6.53;;;;;;;7.71;99.44;97387.66;4195878;28;20055;-72
2022/04/06 03:38:41;;;;;;;9.38;6.50;;;;;;;7.72;97.93;97392.75;4191941;28;20529;-72
2022/04/06 03:40:41;;;;;;;9.07;5.97;;;;;;;7.68;98.19;97389.19;4195669;28;20048;-72
2022/04/06 03:42:42;;;;;;;10.30;5.93;;;;;;;7.69;97.08;97385.25;4190848;28;20122;-72
2022/04/06 03:44:43;;;;;;;7.95;5.88;;;;;;;7.73;96.03;97382.53;4195663;28;20040;-72
2022/04/06 03:46:43;;;;;;;7.28;4.75;;;;;;;7.72;95.69;97379.00;4191803;28;20261;-72
2022/04/06 03:48:44;;;;;;;7.70;5.25;;;;;;;7.73;95.32;97383.31;4193072;28;20438;-72
2022/04/06 03:50:44;;;;;;;8.68;5.97;;;;;;;7.68;95.59;97380.16;4198452;28;20096;-72
2022/04/06 03:52:45;;;;;;;7.68;5.72;;;;;;;7.67;95.59;97386.81;4197838;28;20049;-72
2022/04/06 03:54:46;;;;;;;8.85;5.97;;;;;;;7.66;95.49;97386.03;4195594;28;20468;-72
2022/04/06 03:56:46;;;;;;;11.90;6.40;;;;;;;7.64;95.29;97385.66;4200068;28;20036;-72
2022/04/06 03:58:47;;;;;;;8.77;5.68;;;;;;;7.60;96.04;97390.31;4199720;28;20098;-72
2022/04/06 04:00:47;;;;;;;9.95;6.38;;;;;;;7.60;95.63;97391.09;4198480;28;20798;-72
2022/04/06 04:02:48;;;;;;;9.07;5.70;;;;;;;7.58;95.68;97387.97;4196403;28;20109;-72
2022/04/06 04:04:48;;;;;;;8.40;5.28;;;;;;;7.64;93.89;97382.88;4196324;28;20129;-72
2022/04/06 04:06:49;;;;;;;8.60;5.43;;;;;;;7.59;93.96;97392.28;4197621;28;20056;-72
2022/04/06 04:08:49;;;;;;;9.10;6.07;;;;;;;7.60;93.88;97387.56;4198425;28;20048;-72
2022/04/06 04:10:49;;;;;;;7.40;5.35;;;;;;;7.59;92.91;97386.00;4196811;28;20044;-72
2022/04/06 04:12:50;;;;;;;7.93;5.35;;;;;;;7.59;93.24;97383.25;4199400;28;20044;-72
2022/04/06 04:14:50;;;;;;;9.48;5.38;;;;;;;7.58;92.96;97387.16;4198748;28;20570;-72
2022/04/06 04:16:50;;;;;;;8.73;5.78;;;;;;;7.55;93.70;97388.75;4190033;28;20198;-72
2022/04/06 04:18:51;;;;;;;11.95;6.53;;;;;;;7.54;93.21;97380.88;4197162;28;20123;-72
2022/04/06 04:21:31;;;;;;;8.52;5.20;;;;;;;7.59;92.26;97375.78;4197859;28;20127;-72
2022/04/06 04:23:12;;;;;;;11.30;5.85;;;;;;;7.65;91.61;97378.97;4197218;28;20126;-72
2022/04/06 04:25:12;;;;;;;10.07;5.50;;;;;;;7.77;90.44;97388.84;4195911;28;20513;-72
2022/04/06 04:27:13;;;;;;;8.52;5.47;;;;;;;7.76;90.29;97387.25;4194882;28;20384;-72
2022/04/06 04:29:14;;;;;;;10.32;5.30;;;;;;;7.79;89.10;97392.81;4195913;28;20051;-72
2022/04/06 04:31:14;;;;;;;9.52;5.43;;;;;;;7.82;88.23;97394.00;4195841;28;20778;-72
2022/04/06 04:33:14;;;;;;;10.85;5.55;;;;;;;7.79;88.64;97389.25;4197492;28;20384;-72
2022/04/06 04:35:15;;;;;;;7.75;5.20;;;;;;;7.81;87.36;97384.16;4193971;28;20207;-72
2022/04/06 04:37:15;;;;;;;7.25;4.95;;;;;;;7.84;87.17;97377.88;4196883;28;20098;-72
2022/04/06 04:39:16;;;;;;;8.55;5.07;;;;;;;7.78;87.02;97388.47;4203243;28;20051;-72
2022/04/06 04:41:17;;;;;;;10.25;5.63;;;;;;;7.81;85.53;97384.16;4193703;28;20444;-72
2022/04/06 04:43:17;;;;;;;8.18;5.15;;;;;;;7.78;86.00;97388.47;4189627;28;20784;-72
2022/04/06 04:45:17;;;;;;;10.68;5.50;;;;;;;7.81;85.48;97384.16;4199150;28;20084;-72
2022/04/06 04:47:18;;;;;;;9.23;4.95;;;;;;;7.78;85.98;97373.91;4198308;28;20135;-72
2022/04/06 04:49:18;;;;;;;10.48;5.82;;;;;;;7.74;87.09;97378.59;4194430;28;20124;-72
2022/04/06 04:51:18;;;;;;;8.88;5.13;;;;;;;7.72;87.23;97375.47;4193931;28;20381;-72
2022/04/06 04:53:19;;;;;;;9.32;5.20;;;;;;;7.73;87.08;97371.53;4197301;28;20148;-72
2022/04/06 04:55:19;;;;;;;9.25;5.13;;;;;;;7.75;86.71;97378.22;4189933;28;20094;-72
2022/04/06 04:57:19;;;;;;;9.55;5.25;;;;;;;7.72;87.57;97372.72;4138092;28;20479;-72
2022/04/06 04:59:20;;;;;;;11.70;5.28;;;;;;;7.74;87.40;97375.84;4197436;28;20210;-72
2022/04/06 05:01:20;;;;;;;9.23;5.28;;;;;;;7.69;87.30;97367.94;4196285;28;20047;-72
2022/04/06 05:03:21;;;;;;;10.50;5.82;;;;;;;7.71;86.72;97366.41;4190302;28;20716;-72
2022/04/06 05:05:21;;;;;;;9.38;5.35;;;;;;;7.69;87.68;97368.75;4196841;28;20040;-72
2022/04/06 05:07:21;;;;;;;7.57;5.47;;;;;;;7.71;86.80;97362.88;4197434;28;20067;-72
2022/04/06 05:09:22;;;;;;;8.95;5.13;;;;;;;7.70;87.04;97378.59;4194007;28;20165;-72
2022/04/06 05:11:22;;;;;;;8.15;4.90;;;;;;;7.78;86.65;97376.69;4196179;28;20039;-72
2022/04/06 05:13:22;;;;;;;8.55;4.75;;;;;;;7.73;86.39;97380.56;4197288;28;20305;-72
2022/04/06 05:15:23;;;;;;;8.60;4.95;;;;;;;7.72;86.88;97376.25;4193474;28;20471;-72
2022/04/06 05:17:23;;;;;;;9.73;5.30;;;;;;;7.69;86.60;97376.22;4196062;28;20444;-72
2022/04/06 05:19:23;;;;;;;9.23;5.55;;;;;;;7.72;86.48;97381.75;4195404;28;20416;-72
2022/04/06 05:21:24;;;;;;;9.45;5.47;;;;;;;7.71;86.85;97374.66;4195025;28;20461;-72
2022/04/06 05:23:24;;;;;;;10.80;5.65;;;;;;;7.73;86.17;97371.53;4194790;28;20072;-72
2022/04/06 05:25:24;;;;;;;10.00;4.70;;;;;;;7.69;86.15;97371.50;4194139;28;20329;-72
2022/04/06 05:27:25;;;;;;;9.30;5.50;;;;;;;7.69;85.77;97381.72;4192484;28;20075;-72
2022/04/06 05:29:25;;;;;;;10.20;5.20;;;;;;;7.65;86.20;97378.97;4193595;28;20124;-72
2022/04/06 05:31:25;;;;;;;7.93;4.93;;;;;;;7.67;85.63;97379.34;4196347;28;20041;-72
2022/04/06 05:33:26;;;;;;;10.38;5.22;;;;;;;7.71;84.76;97377.44;4195334;28;20366;-72
2022/04/06 05:35:28;;;;;;;9.63;5.18;;;;;;;7.69;84.72;97370.72;4189521;28;20054;-72
2022/04/06 05:37:28;;;;;;;10.23;5.70;;;;;;;7.77;84.34;97372.31;4191917;28;20090;-72
2022/04/06 05:39:28;;;;;;;8.55;4.78;;;;;;;7.74;84.87;97378.59;4193933;28;20037;-72
2022/04/06 05:41:29;;;;;;;9.85;5.63;;;;;;;7.79;83.96;97378.25;4194825;28;20433;-72
2022/04/06 05:43:29;;;;;;;8.50;5.07;;;;;;;7.82;83.27;97371.97;4194353;28;20080;-72
2022/04/06 05:45:30;;;;;;;10.77;5.00;;;;;;;7.78;83.68;97374.72;4195994;28;20052;-72
2022/04/06 05:47:30;;;;;;;10.18;4.43;;;;;;;7.83;82.94;97368.81;4195452;28;20045;-72
2022/04/06 05:49:31;;;;;;;13.52;4.95;;;;;;;7.88;82.47;97378.69;4200215;28;20109;-72
2022/04/06 05:51:31;;;;;;;8.32;4.70;;;;;;;7.88;82.99;97384.19;4194371;28;20040;-72
2022/04/06 05:53:31;;;;;;;8.50;4.82;;;;;;;7.85;83.20;97382.97;4194755;28;20056;-72
2022/04/06 05:55:32;;;;;;;13.57;7.40;;;;;;;7.84;83.74;97378.66;4195690;28;20043;-72
2022/04/06 05:57:32;;;;;;;16.05;7.72;;;;;;;7.86;83.57;97381.00;4190306;28;20079;-72
2022/04/06 05:59:32;;;;;;;13.85;6.93;;;;;;;7.87;83.42;97377.91;4195093;28;20093;-72
2022/04/06 06:01:33;;;;;;;12.75;6.35;;;;;;;7.88;83.25;97376.72;4196514;28;20047;-72
2022/04/06 06:03:33;;;;;;;8.55;5.82;;;;;;;7.91;83.48;97391.66;4191940;28;20048;-72
2022/04/06 06:05:34;;;;;;;6.72;4.78;;;;;;;7.89;83.76;97389.31;4195123;28;20098;-72
2022/04/06 06:07:34;;;;;;;7.07;4.57;;;;;;;7.94;83.48;97390.88;4193802;28;20464;-72
2022/04/06 06:09:35;;;;;;;8.50;5.32;;;;;;;8.00;82.80;97388.56;4193265;28;20039;-72
2022/04/06 06:11:36;;;;;;;8.90;4.70;;;;;;;8.02;83.08;97384.22;4194327;28;20051;-72
2022/04/06 06:13:36;;;;;;;9.50;5.03;;;;;;;8.00;83.98;97383.84;4194212;28;20489;-72
2022/04/06 06:15:37;;;;;;;8.50;5.05;;;;;;;7.99;83.93;97386.97;4196298;28;20443;-72
2022/04/06 06:17:38;;;;;;;12.57;5.07;;;;;;;8.00;83.88;97383.84;4191516;28;20649;-72
2022/04/06 06:19:38;;;;;;;10.55;4.47;;;;;;;8.04;83.74;97386.63;4194373;28;20036;-72
2022/04/06 06:21:39;;;;;;;7.50;4.72;;;;;;;8.05;84.10;97393.72;4194126;28;20033;-72
2022/04/06 06:23:39;;;;;;;11.05;4.90;;;;;;;8.09;83.01;97388.97;4191047;28;20623;-72
2022/04/06 06:25:39;;;;;;;9.95;5.35;;;;;;;8.08;83.22;97379.16;4198240;28;20041;-72
2022/04/06 06:27:41;;;;;;;10.43;5.00;;;;;;;8.14;82.38;97380.34;4199825;28;20530;-72
2022/04/06 06:29:41;;;;;;;8.27;4.72;;;;;;;8.20;82.18;97378.81;4190480;28;20112;-72
2022/04/06 06:31:42;;;;;;;9.65;4.88;;;;;;;8.16;82.45;97378.78;4192077;28;20044;-72
2022/04/06 06:33:42;;;;;;;7.32;4.57;;;;;;;8.18;82.64;97384.69;4195455;28;20039;-72
2022/04/06 06:35:43;;;;;;;8.45;4.80;;;;;;;8.18;82.46;97381.94;4193132;28;20043;-72
2022/04/06 06:37:51;;;;;;;8.48;5.07;;;;;;;8.16;82.65;97383.50;4190875;28;20044;-72
2022/04/06 06:39:54;;;;;;;9.57;4.93;;;;;;;8.17;82.09;97374.84;4192744;28;20135;-72
2022/04/06 06:41:54;;;;;;;7.75;4.90;;;;;;;8.26;81.35;97370.94;4194396;28;20086;-72
2022/04/06 06:43:56;;;;;;;9.13;5.18;;;;;;;8.26;81.11;97377.22;4191457;28;20058;-72
2022/04/06 06:45:56;;;;;;;6.57;4.65;;;;;;;8.27;80.65;97367.78;4191524;28;20041;-72
2022/04/06 06:47:56;;;;;;;11.48;5.72;;;;;;;8.30;80.82;97369.00;4193591;28;20050;-72
2022/04/06 06:49:57;;;;;;;10.18;5.13;;;;;;;8.33;81.28;97377.25;4193228;28;20075;-72
2022/04/06 06:51:57;;;;;;;7.97;4.80;;;;;;;8.36;80.82;97376.53;4196446;28;20127;-72
2022/04/06 06:53:59;;;;;;;7.63;5.40;;;;;;;8.31;81.08;97371.34;4192390;28;20052;-72
2022/04/06 06:55:59;;;;;;;5.50;4.10;;;;;;;8.38;80.46;97371.41;4195051;28;20592;-72
2022/04/06 06:57:59;;;;;;;9.13;4.20;;;;;;;8.36;79.88;97373.78;4195635;28;20462;-72
2022/04/06 07:00:00;;;;;;;9.88;4.90;;;;;;;8.43;79.27;97370.22;4191398;28;20202;-72
2022/04/06 07:02:00;;;;;;;9.55;5.03;;;;;;;8.49;78.90;97367.88;4201683;28;20043;-72
2022/04/06 07:04:01;;;;;;;12.73;5.13;;;;;;;8.50;78.65;97369.44;4195348;28;20024;-72
2022/04/06 07:06:02;;;;;;;10.77;4.82;;;;;;;8.54;78.13;97365.53;4192144;28;20024;-72
2022/04/06 07:08:02;;;;;;;6.53;4.63;;;;;;;8.50;77.20;97355.66;4198618;28;20051;-72
2022/04/06 07:10:03;;;;;;;10.40;4.50;;;;;;;8.54;77.40;97364.75;4196461;28;20036;-72
2022/04/06 07:12:03;;;;;;;7.93;4.57;;;;;;;8.58;77.54;97354.50;4202769;28;20355;-72
2022/04/06 07:14:04;;;;;;;5.80;3.95;;;;;;;8.62;77.06;97358.84;4196768;28;20350;-72
2022/04/06 07:16:06;;;;;;;7.90;4.28;;;;;;;8.60;76.05;97358.44;4198557;28;20033;-72
2022/04/06 07:18:08;;;;;;;7.68;3.97;;;;;;;8.60;75.43;97357.66;4198459;28;20364;-72
2022/04/06 07:20:09;;;;;;;8.82;4.40;;;;;;;8.62;76.30;97361.59;4194556;28;20036;-72
2022/04/06 07:22:09;;;;;;;6.18;4.35;;;;;;;8.59;76.66;97354.09;4199010;28;20043;-72
2022/04/06 07:24:09;;;;;;;8.73;3.85;;;;;;;8.59;75.15;97356.06;4199489;28;20541;-72
2022/04/06 07:26:12;;;;;;;6.55;4.05;;;;;;;8.65;73.68;97358.06;4197819;28;20093;-72
2022/04/06 07:28:13;;;;;;;11.48;4.63;;;;;;;8.71;74.05;97353.72;4195808;28;20041;-72
2022/04/06 07:30:14;;;;;;;7.20;3.47;;;;;;;8.69;74.00;97358.84;4199108;28;20367;-72
2022/04/06 07:32:14;;;;;;;6.05;4.18;;;;;;;8.68;73.41;97348.97;4200968;28;20450;-72
2022/04/06 07:34:14;;;;;;;6.20;3.63;;;;;;;8.72;73.18;97349.78;4196912;28;20137;-72
2022/04/06 07:36:15;;;;;;;5.93;3.45;;;;;;;8.69;72.36;97339.56;4200186;28;20062;-72
2022/04/06 07:38:15;;;;;;;7.60;3.38;;;;;;;8.72;70.82;97349.00;4193356;28;20082;-72
2022/04/06 07:40:21;;;;;;;7.35;3.40;;;;;;;8.70;70.49;97354.13;4198371;28;20109;-72
2022/04/06 07:42:22;;;;;;;6.97;3.50;;;;;;;8.64;71.40;97355.69;4195843;28;20145;-72
2022/04/06 07:44:23;;;;;;;6.68;3.30;;;;;;;8.71;70.20;97347.44;4204161;28;20048;-72
2022/04/06 07:46:24;;;;;;;5.18;3.03;;;;;;;8.75;69.36;97342.69;4199592;28;20067;-72
2022/04/06 07:48:27;;;;;;;8.80;2.87;;;;;;;8.75;68.21;97352.94;4195985;28;20047;-72
2022/04/06 07:50:27;;;;;;;6.40;3.40;;;;;;;8.73;68.74;97345.06;4195686;28;20976;-72
2022/04/06 07:52:28;;;;;;;5.47;3.08;;;;;;;8.77;68.72;97356.09;4199061;28;20361;-72
2022/04/06 07:54:28;;;;;;;6.00;2.90;;;;;;;8.81;68.89;97356.88;4198284;28;20422;-72
2022/04/06 07:56:28;;;;;;;10.30;3.50;;;;;;;8.80;67.03;97361.63;4196608;28;20242;-71
2022/04/06 07:58:29;;;;;;;5.43;2.92;;;;;;;8.77;67.20;97358.84;4199802;28;20040;-72
2022/04/06 08:00:33;;;;;;;6.75;2.50;;;;;;;8.74;67.35;97371.47;4202126;28;20051;-72
2022/04/06 08:02:33;;;;;;;3.58;2.42;;;;;;;8.75;66.99;97359.25;4196426;28;20032;-72
2022/04/06 08:04:34;;;;;;;5.13;2.80;;;;;;;8.75;66.81;97361.22;4200644;28;20110;-72
2022/04/06 08:06:34;;;;;;;7.50;2.40;;;;;;;8.67;67.17;97352.94;4198503;28;20056;-72
2022/04/06 08:08:35;;;;;;;5.55;2.53;;;;;;;8.70;68.54;97367.91;4192938;28;20112;-72
2022/04/06 08:10:35;;;;;;;6.53;2.67;;;;;;;8.77;65.67;97358.84;4194608;28;20040;-72
2022/04/06 08:12:36;;;;;;;6.28;2.58;;;;;;;8.81;65.59;97363.19;4200685;28;20590;-72
2022/04/06 08:14:36;;;;;;;4.15;2.33;;;;;;;8.85;64.80;97352.94;4201963;28;20472;-72
2022/04/06 08:16:37;;;;;;;8.75;3.50;;;;;;;8.94;67.20;97378.19;4195461;28;20511;-72
2022/04/06 08:18:37;;;;;;;6.18;2.65;;;;;;;9.00;66.04;97359.25;4198365;28;20044;-72
2022/04/06 08:20:38;;;;;;;6.28;2.42;;;;;;;9.03;66.29;97368.72;4195269;28;20152;-72
2022/04/06 08:22:40;;;;;;;6.88;3.15;;;;;;;9.05;65.52;97353.34;4198987;28;20105;-72
2022/04/06 08:24:40;;;;;;;5.57;2.72;;;;;;;9.04;64.31;97367.53;4197356;28;20058;-72
2022/04/06 08:26:41;;;;;;;5.57;2.45;;;;;;;9.14;62.53;97361.22;4197160;28;20472;-72
2022/04/06 08:28:42;;;;;;;3.75;2.20;;;;;;;9.20;62.56;97362.41;4198928;28;20044;-72
2022/04/06 08:30:43;;;;;;;4.50;2.30;;;;;;;9.29;61.86;97368.31;4193708;28;20051;-72
2022/04/06 08:32:44;;;;;;;4.82;2.00;;;;;;;9.21;62.78;97359.25;4197984;28;20075;-72
2022/04/06 08:34:44;;;;;;;3.92;2.33;;;;;;;9.21;62.92;97372.25;4195918;28;20059;-72
2022/04/06 08:36:45;;;;;;;8.52;2.28;;;;;;;9.18;61.19;97359.22;4194530;28;20040;-72
2022/04/06 08:38:45;;;;;;;3.03;1.50;;;;;;;9.13;62.07;97359.66;4196533;28;20458;-72
2022/04/06 08:40:45;;;;;;;5.10;1.80;;;;;;;9.13;61.61;97359.66;4195709;28;20044;-72
2022/04/06 08:42:46;;;;;;;3.55;1.77;;;;;;;9.13;61.82;97360.44;4196244;28;22122;-72
2022/04/06 08:44:46;;;;;;;5.18;1.98;;;;;;;9.25;61.41;97364.75;4198991;28;20113;-72
2022/04/06 08:46:50;;;;;;;3.28;2.22;;;;;;;9.27;61.25;97363.19;4196891;28;20135;-72
2022/04/06 08:48:51;;;;;;;5.45;2.05;;;;;;;9.25;61.35;97373.81;4190252;28;20044;-72
2022/04/06 08:50:53;;;;;;;2.15;1.50;;;;;;;9.33;60.63;97371.03;4198894;28;20428;-72
2022/04/06 08:52:55;;;;;;;5.05;3.00;;;;;;;9.39;60.58;97369.47;4193035;28;20083;-72
2022/04/06 08:54:56;;;;;;;5.40;1.75;;;;;;;9.40;61.25;97366.31;4197949;28;20039;-72
2022/04/06 08:56:56;;;;;;;3.03;1.80;;;;;;;9.39;60.17;97366.72;4197787;28;20468;-72
2022/04/06 08:58:58;;;;;;;5.43;2.40;;;;;;;9.36;61.68;97367.50;4195748;28;20516;-72
2022/04/06 09:00:59;;;;;;;6.82;1.98;;;;;;;9.36;60.74;97373.03;4197255;28;20052;-72
2022/04/06 09:02:59;;;;;;;4.90;2.05;;;;;;;9.34;60.78;97372.63;4197174;28;20045;-72
2022/04/06 09:05:02;;;;;;;5.60;2.28;;;;;;;9.31;58.89;97362.38;4195025;28;20139;-72
2022/04/06 09:07:07;;;;;;;3.38;1.80;;;;;;;9.25;60.82;97365.53;4194881;28;20040;-72
2022/04/06 09:09:09;;;;;;;2.88;1.80;;;;;;;9.38;61.83;97356.84;4197027;28;20036;-72
2022/04/06 09:11:15;;;;;;;2.20;1.58;;;;;;;9.46;60.31;97367.47;4196070;28;20056;-72
2022/04/06 09:13:20;;;;;;;4.93;2.03;;;;;;;9.50;61.01;97368.25;4197960;28;20147;-72
2022/04/06 09:15:23;;;;;;;4.65;1.80;;;;;;;9.47;59.26;97363.53;4194345;28;20040;-72
2022/04/06 09:17:24;;;;;;;2.60;1.80;;;;;;;9.50;59.46;97364.72;4198327;28;20048;-72
2022/04/06 09:19:24;;;;;;;4.22;1.73;;;;;;;9.44;59.86;97367.09;4191438;28;20041;-72
2022/04/06 09:21:25;;;;;;;4.10;1.80;;;;;;;9.31;59.22;97368.69;4198822;28;20415;-72
2022/04/06 09:23:29;;;;;;;2.42;1.60;;;;;;;9.33;59.11;97374.59;4196356;28;20101;-72
2022/04/06 09:25:38;;;;;;;2.88;1.45;;;;;;;9.23;60.68;97353.31;4195271;28;20059;-72
2022/04/06 09:27:40;;;;;;;2.78;1.65;;;;;;;9.35;60.49;97366.72;4190592;28;20036;-72
2022/04/06 09:29:48;;;;;;;;;;;;;;;9.48;60.31;97378.91;4195018;28;20114;-72
2022/04/06 09:31:49;;;;;;;2.00;1.75;;;;;;;9.63;59.53;97373.38;4195923;28;19913;-72
2022/04/06 09:34:00;;;;;;;4.03;1.88;;;;;;;9.61;58.85;97365.50;4196189;28;20102;-72
2022/04/06 09:36:00;;;;;;;2.67;1.60;;;;;;;9.65;58.71;97351.66;4192273;28;20353;-72
2022/04/06 09:38:25;;;;;;;6.25;2.15;;;;;;;9.71;59.42;97358.34;4196228;28;20047;-72
2022/04/06 09:40:29;;;;;;;3.78;1.73;;;;;;;9.70;58.63;97343.75;4196902;28;20079;-72
2022/04/06 09:42:29;;;;;;;3.85;2.15;;;;;;;9.66;60.20;97367.81;4197966;28;20050;-72